sensor_id;sensor_type;location;lat;lon;timestamp;pressure;altitude;pressure_sealevel;temperature;humidity
14232;BME280;7200;52.194;9.900;2022-07-06T00:01:18;101265.97;;;16.66;97.96
14232;BME280;7200;52.194;9.900;2022-07-06T00:03:43;101257.50;;;16.58;98.55
14232;BME280;7200;52.194;9.900;2022-07-06T00:06:08;101250.66;;;16.52;98.74
14232;BME280;7200;52.194;9.900;2022-07-06T00:08:34;101259.88;;;16.45;99.62
14232;BME280;7200;52.194;9.900;2022-07-06T00:11:00;101274.06;;;16.45;100.00
14232;BME280;7200;52.194;9.900;2022-07-06T00:13:25;101262.63;;;16.43;99.79
14232;BME280;7200;52.194;9.900;2022-07-06T00:15:51;101269.03;;;16.39;100.00
14232;BME280;7200;52.194;9.900;2022-07-06T00:18:16;101263.13;;;16.32;100.00
14232;BME280;7200;52.194;9.900;2022-07-06T00:20:41;101265.59;;;16.37;100.00
14232;BME280;7200;52.194;9.900;2022-07-06T00:23:07;101265.22;;;16.45;100.00
14232;BME280;7200;52.194;9.900;2022-07-06T00:25:32;101263.47;;;16.44;100.00
14232;BME280;7200;52.194;9.900;2022-07-06T00:27:57;101242.78;;;16.31;100.00
14232;BME280;7200;52.194;9.900;2022-07-06T00:30:23;101256.69;;;16.37;100.00
14232;BME280;7200;52.194;9.900;2022-07-06T00:32:48;101256.63;;;16.38;99.70
14232;BME280;7200;52.194;9.900;2022-07-06T00:35:13;101256.81;;;16.35;99.09
14232;BME280;7200;52.194;9.900;2022-07-06T00:37:39;101264.44;;;16.43;98.66
14232;BME280;7200;52.194;9.900;2022-07-06T00:40:05;101273.22;;;16.45;98.97
14232;BME280;7200;52.194;9.900;2022-07-06T00:42:41;101279.16;;;16.50;98.11
14232;BME280;7200;52.194;9.900;2022-07-06T00:45:08;101269.09;;;16.57;97.28
14232;BME280;7200;52.194;9.900;2022-07-06T00:47:33;101246.63;;;16.43;97.53
14232;BME280;7200;52.194;9.900;2022-07-06T00:49:59;101260.03;;;16.42;97.32
14232;BME280;7200;52.194;9.900;2022-07-06T00:52:53;101259.94;;;16.43;97.13
14232;BME280;7200;52.194;9.900;2022-07-06T00:55:21;101249.00;;;16.30;96.89
14232;BME280;7200;52.194;9.900;2022-07-06T00:57:47;101244.78;;;16.26;96.50
14232;BME280;7200;52.194;9.900;2022-07-06T01:00:15;101240.00;;;16.14;97.00
14232;BME280;7200;52.194;9.900;2022-07-06T01:02:42;101248.44;;;16.05;97.31
14232;BME280;7200;52.194;9.900;2022-07-06T01:05:09;101266.00;;;16.09;97.49
14232;BME280;7200;52.194;9.900;2022-07-06T01:07:36;101258.50;;;15.98;98.04
14232;BME280;7200;52.194;9.900;2022-07-06T01:10:06;101256.25;;;15.89;98.71
14232;BME280;7200;52.194;9.900;2022-07-06T01:12:32;101273.03;;;15.91;98.75
14232;BME280;7200;52.194;9.900;2022-07-06T01:14:59;101275.41;;;15.97;98.86
14232;BME280;7200;52.194;9.900;2022-07-06T01:17:25;101281.31;;;16.04;98.51
14232;BME280;7200;52.194;9.900;2022-07-06T01:19:51;101282.16;;;16.04;98.57
14232;BME280;7200;52.194;9.900;2022-07-06T01:22:16;101267.78;;;16.08;97.76
14232;BME280;7200;52.194;9.900;2022-07-06T01:24:41;101277.09;;;16.19;97.06
14232;BME280;7200;52.194;9.900;2022-07-06T01:27:07;101279.03;;;16.15;96.83
14232;BME280;7200;52.194;9.900;2022-07-06T01:29:33;101251.91;;;16.07;96.46
14232;BME280;7200;52.194;9.900;2022-07-06T01:31:59;101257.13;;;16.08;96.31
14232;BME280;7200;52.194;9.900;2022-07-06T01:34:25;101257.72;;;16.15;96.19
14232;BME280;7200;52.194;9.900;2022-07-06T01:36:50;101261.13;;;16.19;95.94
14232;BME280;7200;52.194;9.900;2022-07-06T01:39:15;101251.97;;;16.05;95.70
14232;BME280;7200;52.194;9.900;2022-07-06T01:41:41;101247.50;;;16.06;95.69
14232;BME280;7200;52.194;9.900;2022-07-06T01:44:07;101275.22;;;16.21;95.54
14232;BME280;7200;52.194;9.900;2022-07-06T01:46:32;101264.75;;;16.16;95.46
14232;BME280;7200;52.194;9.900;2022-07-06T01:48:58;101261.41;;;16.12;95.56
14232;BME280;7200;52.194;9.900;2022-07-06T01:51:24;101270.44;;;16.27;94.97
14232;BME280;7200;52.194;9.900;2022-07-06T01:53:50;101256.56;;;16.21;94.57
14232;BME280;7200;52.194;9.900;2022-07-06T01:56:16;101261.78;;;16.24;94.43
14232;BME280;7200;52.194;9.900;2022-07-06T01:58:44;101235.72;;;16.11;94.68
14232;BME280;7200;52.194;9.900;2022-07-06T02:01:11;101254.94;;;16.18;94.41
14232;BME280;7200;52.194;9.900;2022-07-06T02:03:37;101251.31;;;16.19;93.68
14232;BME280;7200;52.194;9.900;2022-07-06T02:06:03;101267.34;;;16.18;93.84
14232;BME280;7200;52.194;9.900;2022-07-06T02:08:29;101251.97;;;16.05;93.73
14232;BME280;7200;52.194;9.900;2022-07-06T02:10:54;101257.91;;;16.10;93.26
14232;BME280;7200;52.194;9.900;2022-07-06T02:13:19;101252.69;;;16.09;93.01
14232;BME280;7200;52.194;9.900;2022-07-06T02:15:45;101234.06;;;15.90;92.72
14232;BME280;7200;52.194;9.900;2022-07-06T02:18:10;101232.53;;;15.84;93.10
14232;BME280;7200;52.194;9.900;2022-07-06T02:20:36;101241.56;;;15.80;93.63
14232;BME280;7200;52.194;9.900;2022-07-06T02:23:01;101224.69;;;15.61;94.35
14232;BME280;7200;52.194;9.900;2022-07-06T02:25:26;101243.72;;;15.51;95.25
14232;BME280;7200;52.194;9.900;2022-07-06T02:27:52;101257.22;;;15.47;95.80
14232;BME280;7200;52.194;9.900;2022-07-06T02:30:17;101252.16;;;15.41;96.10
14232;BME280;7200;52.194;9.900;2022-07-06T02:32:42;101264.53;;;15.42;96.78
14232;BME280;7200;52.194;9.900;2022-07-06T02:35:08;101258.75;;;15.32;96.91
14232;BME280;7200;52.194;9.900;2022-07-06T02:37:33;101274.69;;;15.32;97.81
14232;BME280;7200;52.194;9.900;2022-07-06T02:40:00;101279.97;;;15.33;97.82
14232;BME280;7200;52.194;9.900;2022-07-06T02:42:26;101281.66;;;15.34;97.95
14232;BME280;7200;52.194;9.900;2022-07-06T02:44:54;101290.03;;;15.25;98.68
14232;BME280;7200;52.194;9.900;2022-07-06T02:47:19;101293.69;;;15.23;98.84
14232;BME280;7200;52.194;9.900;2022-07-06T02:49:45;101292.47;;;15.31;98.74
14232;BME280;7200;52.194;9.900;2022-07-06T02:52:10;101290.03;;;15.25;98.92
14232;BME280;7200;52.194;9.900;2022-07-06T02:54:35;101280.41;;;15.23;99.10
14232;BME280;7200;52.194;9.900;2022-07-06T02:57:01;101294.44;;;15.26;99.58
14232;BME280;7200;52.194;9.900;2022-07-06T02:59:26;101292.75;;;15.24;99.39
14232;BME280;7200;52.194;9.900;2022-07-06T03:01:51;101297.84;;;15.30;99.46
14232;BME280;7200;52.194;9.900;2022-07-06T03:04:17;101289.19;;;15.25;99.35
14232;BME280;7200;52.194;9.900;2022-07-06T03:06:42;101306.72;;;15.29;99.75
14232;BME280;7200;52.194;9.900;2022-07-06T03:09:07;101305.94;;;15.27;99.96
14232;BME280;7200;52.194;9.900;2022-07-06T03:11:33;101307.47;;;15.32;99.96
14232;BME280;7200;52.194;9.900;2022-07-06T03:14:04;101316.91;;;15.40;99.87
14232;BME280;7200;52.194;9.900;2022-07-06T03:16:30;101306.34;;;15.38;99.78
14232;BME280;7200;52.194;9.900;2022-07-06T03:18:56;101279.66;;;15.19;100.00
14232;BME280;7200;52.194;9.900;2022-07-06T03:21:21;101304.22;;;15.26;100.00
14232;BME280;7200;52.194;9.900;2022-07-06T03:23:47;101296.00;;;15.10;100.00
14232;BME280;7200;52.194;9.900;2022-07-06T03:26:12;101310.72;;;15.18;100.00
14232;BME280;7200;52.194;9.900;2022-07-06T03:28:37;101311.81;;;15.13;100.00
14232;BME280;7200;52.194;9.900;2022-07-06T03:31:03;101313.16;;;15.23;100.00
14232;BME280;7200;52.194;9.900;2022-07-06T03:33:28;101298.47;;;15.14;100.00
14232;BME280;7200;52.194;9.900;2022-07-06T03:35:53;101297.78;;;15.09;100.00
14232;BME280;7200;52.194;9.900;2022-07-06T03:38:18;101302.97;;;15.12;100.00
14232;BME280;7200;52.194;9.900;2022-07-06T03:40:44;101321.34;;;15.18;100.00
14232;BME280;7200;52.194;9.900;2022-07-06T03:43:09;101311.97;;;15.30;100.00
14232;BME280;7200;52.194;9.900;2022-07-06T03:45:35;101306.78;;;15.27;100.00
14232;BME280;7200;52.194;9.900;2022-07-06T03:48:00;101316.16;;;15.36;100.00
14232;BME280;7200;52.194;9.900;2022-07-06T03:50:25;101311.78;;;15.35;100.00
14232;BME280;7200;52.194;9.900;2022-07-06T03:52:50;101310.06;;;15.34;100.00
14232;BME280;7200;52.194;9.900;2022-07-06T03:55:16;101310.66;;;15.41;100.00
14232;BME280;7200;52.194;9.900;2022-07-06T03:57:41;101321.00;;;15.48;100.00
14232;BME280;7200;52.194;9.900;2022-07-06T04:00:07;101310.66;;;15.41;100.00
14232;BME280;7200;52.194;9.900;2022-07-06T04:02:33;101304.31;;;15.23;100.00
14232;BME280;7200;52.194;9.900;2022-07-06T04:04:59;101308.16;;;15.15;100.00
14232;BME280;7200;52.194;9.900;2022-07-06T04:07:25;101319.53;;;15.19;100.00
14232;BME280;7200;52.194;9.900;2022-07-06T04:09:50;101322.41;;;15.14;100.00
14232;BME280;7200;52.194;9.900;2022-07-06T04:12:15;101327.09;;;15.08;100.00
14232;BME280;7200;52.194;9.900;2022-07-06T04:14:41;101329.91;;;15.25;100.00
14232;BME280;7200;52.194;9.900;2022-07-06T04:17:06;101335.69;;;15.35;100.00
14232;BME280;7200;52.194;9.900;2022-07-06T04:19:50;101333.94;;;15.35;100.00
14232;BME280;7200;52.194;9.900;2022-07-06T04:22:15;101343.19;;;15.47;100.00
14232;BME280;7200;52.194;9.900;2022-07-06T04:24:41;101315.78;;;15.45;100.00
14232;BME280;7200;52.194;9.900;2022-07-06T04:27:06;101325.63;;;15.43;100.00
14232;BME280;7200;52.194;9.900;2022-07-06T04:29:31;101332.53;;;15.47;100.00
14232;BME280;7200;52.194;9.900;2022-07-06T04:31:57;101336.63;;;15.56;100.00
14232;BME280;7200;52.194;9.900;2022-07-06T04:34:23;101339.19;;;15.57;100.00
14232;BME280;7200;52.194;9.900;2022-07-06T04:36:48;101338.47;;;15.54;100.00
14232;BME280;7200;52.194;9.900;2022-07-06T04:39:13;101331.69;;;15.47;100.00
14232;BME280;7200;52.194;9.900;2022-07-06T04:41:38;101341.78;;;15.59;100.00
14232;BME280;7200;52.194;9.900;2022-07-06T04:44:04;101345.00;;;15.67;100.00
14232;BME280;7200;52.194;9.900;2022-07-06T04:46:29;101353.41;;;15.79;100.00
14232;BME280;7200;52.194;9.900;2022-07-06T04:48:54;101340.31;;;15.72;100.00
14232;BME280;7200;52.194;9.900;2022-07-06T04:51:20;101338.00;;;15.65;100.00
14232;BME280;7200;52.194;9.900;2022-07-06T04:53:45;101346.88;;;15.65;100.00
14232;BME280;7200;52.194;9.900;2022-07-06T04:56:11;101350.56;;;15.61;100.00
14232;BME280;7200;52.194;9.900;2022-07-06T04:58:36;101349.38;;;15.68;100.00
14232;BME280;7200;52.194;9.900;2022-07-06T05:01:01;101347.78;;;15.64;100.00
14232;BME280;7200;52.194;9.900;2022-07-06T05:03:27;101341.66;;;15.62;100.00
14232;BME280;7200;52.194;9.900;2022-07-06T05:05:52;101338.16;;;15.62;100.00
14232;BME280;7200;52.194;9.900;2022-07-06T05:08:17;101336.41;;;15.61;100.00
14232;BME280;7200;52.194;9.900;2022-07-06T05:10:43;101326.88;;;15.55;100.00
14232;BME280;7200;52.194;9.900;2022-07-06T05:13:08;101355.75;;;15.64;100.00
14232;BME280;7200;52.194;9.900;2022-07-06T05:15:33;101348.16;;;15.77;100.00
14232;BME280;7200;52.194;9.900;2022-07-06T05:17:59;101337.50;;;15.77;100.00
14232;BME280;7200;52.194;9.900;2022-07-06T05:20:24;101328.81;;;15.51;100.00
14232;BME280;7200;52.194;9.900;2022-07-06T05:22:50;101347.09;;;15.59;100.00
14232;BME280;7200;52.194;9.900;2022-07-06T05:25:15;101357.22;;;15.71;100.00
14232;BME280;7200;52.194;9.900;2022-07-06T05:27:40;101356.94;;;15.79;100.00
14232;BME280;7200;52.194;9.900;2022-07-06T05:30:06;101360.25;;;15.84;100.00
14232;BME280;7200;52.194;9.900;2022-07-06T05:32:31;101363.56;;;15.89;100.00
14232;BME280;7200;52.194;9.900;2022-07-06T05:34:57;101353.88;;;15.88;100.00
14232;BME280;7200;52.194;9.900;2022-07-06T05:37:22;101358.25;;;15.89;100.00
14232;BME280;7200;52.194;9.900;2022-07-06T05:39:47;101363.03;;;16.02;100.00
14232;BME280;7200;52.194;9.900;2022-07-06T05:42:14;101344.47;;;16.00;100.00
14232;BME280;7200;52.194;9.900;2022-07-06T05:44:40;101335.38;;;15.85;100.00
14232;BME280;7200;52.194;9.900;2022-07-06T05:47:05;101338.97;;;15.84;100.00
14232;BME280;7200;52.194;9.900;2022-07-06T05:49:49;101363.09;;;16.00;100.00
14232;BME280;7200;52.194;9.900;2022-07-06T05:52:33;101353.91;;;16.07;100.00
14232;BME280;7200;52.194;9.900;2022-07-06T05:54:59;101361.34;;;15.99;100.00
14232;BME280;7200;52.194;9.900;2022-07-06T05:57:24;101366.59;;;16.21;100.00
14232;BME280;7200;52.194;9.900;2022-07-06T05:59:49;101360.78;;;16.32;100.00
14232;BME280;7200;52.194;9.900;2022-07-06T06:02:15;101358.91;;;16.34;100.00
14232;BME280;7200;52.194;9.900;2022-07-06T06:04:40;101342.81;;;16.37;100.00
14232;BME280;7200;52.194;9.900;2022-07-06T06:07:06;101345.13;;;16.45;99.96
14232;BME280;7200;52.194;9.900;2022-07-06T06:09:31;101340.78;;;16.42;99.84
14232;BME280;7200;52.194;9.900;2022-07-06T06:11:57;101357.34;;;16.49;99.87
14232;BME280;7200;52.194;9.900;2022-07-06T06:14:22;101370.19;;;16.60;99.13
14232;BME280;7200;52.194;9.900;2022-07-06T06:16:47;101370.38;;;16.74;98.78
14232;BME280;7200;52.194;9.900;2022-07-06T06:19:13;101338.22;;;16.60;98.77
14232;BME280;7200;52.194;9.900;2022-07-06T06:21:38;101367.22;;;16.66;99.67
14232;BME280;7200;52.194;9.900;2022-07-06T06:24:03;101361.25;;;16.61;100.00
14232;BME280;7200;52.194;9.900;2022-07-06T06:26:29;101361.81;;;16.67;100.00
14232;BME280;7200;52.194;9.900;2022-07-06T06:28:54;101327.25;;;16.28;100.00
14232;BME280;7200;52.194;9.900;2022-07-06T06:31:19;101341.66;;;16.24;100.00
14232;BME280;7200;52.194;9.900;2022-07-06T06:33:45;101340.41;;;16.31;100.00
14232;BME280;7200;52.194;9.900;2022-07-06T06:36:10;101370.97;;;16.43;100.00
14232;BME280;7200;52.194;9.900;2022-07-06T06:38:35;101354.75;;;16.47;100.00
14232;BME280;7200;52.194;9.900;2022-07-06T06:41:00;101382.97;;;16.70;98.92
14232;BME280;7200;52.194;9.900;2022-07-06T06:43:26;101353.91;;;16.85;97.36
14232;BME280;7200;52.194;9.900;2022-07-06T06:45:52;101357.31;;;16.88;95.54
14232;BME280;7200;52.194;9.900;2022-07-06T06:48:17;101362.25;;;16.96;94.56
14232;BME280;7200;52.194;9.900;2022-07-06T06:50:45;101325.78;;;16.78;93.27
14232;BME280;7200;52.194;9.900;2022-07-06T06:53:11;101349.97;;;16.93;92.88
14232;BME280;7200;52.194;9.900;2022-07-06T06:55:36;101336.63;;;16.93;91.96
14232;BME280;7200;52.194;9.900;2022-07-06T06:58:01;101375.34;;;17.20;92.25
14232;BME280;7200;52.194;9.900;2022-07-06T07:00:27;101375.69;;;17.31;91.26
14232;BME280;7200;52.194;9.900;2022-07-06T07:02:52;101371.84;;;17.54;90.03
14232;BME280;7200;52.194;9.900;2022-07-06T07:05:17;101325.47;;;17.57;85.74
14232;BME280;7200;52.194;9.900;2022-07-06T07:07:43;101285.94;;;17.30;83.52
14232;BME280;7200;52.194;9.900;2022-07-06T07:10:08;101279.72;;;17.12;84.20
14232;BME280;7200;52.194;9.900;2022-07-06T07:12:33;101333.78;;;17.33;85.34
14232;BME280;7200;52.194;9.900;2022-07-06T07:14:59;101339.28;;;17.47;83.87
14232;BME280;7200;52.194;9.900;2022-07-06T07:17:25;101314.56;;;17.26;83.94
14232;BME280;7200;52.194;9.900;2022-07-06T07:19:50;101319.69;;;17.31;83.63
14232;BME280;7200;52.194;9.900;2022-07-06T07:22:16;101308.13;;;17.30;82.18
14232;BME280;7200;52.194;9.900;2022-07-06T07:24:41;101301.47;;;17.22;82.44
14232;BME280;7200;52.194;9.900;2022-07-06T07:27:06;101298.63;;;17.25;81.88
14232;BME280;7200;52.194;9.900;2022-07-06T07:29:32;101305.25;;;17.35;80.50
14232;BME280;7200;52.194;9.900;2022-07-06T07:31:57;101320.34;;;17.35;82.17
14232;BME280;7200;52.194;9.900;2022-07-06T07:34:23;101332.69;;;17.37;82.70
14232;BME280;7200;52.194;9.900;2022-07-06T07:36:48;101299.59;;;17.41;80.56
14232;BME280;7200;52.194;9.900;2022-07-06T07:39:13;101292.03;;;17.32;79.36
14232;BME280;7200;52.194;9.900;2022-07-06T07:41:39;101301.53;;;17.38;80.03
14232;BME280;7200;52.194;9.900;2022-07-06T07:44:04;101321.31;;;17.51;79.33
14232;BME280;7200;52.194;9.900;2022-07-06T07:46:30;101324.53;;;17.58;79.27
14232;BME280;7200;52.194;9.900;2022-07-06T07:48:55;101303.66;;;17.48;79.79
14232;BME280;7200;52.194;9.900;2022-07-06T07:51:20;101298.66;;;17.42;79.73
14232;BME280;7200;52.194;9.900;2022-07-06T07:53:46;101297.84;;;17.40;80.29
14232;BME280;7200;52.194;9.900;2022-07-06T07:56:11;101337.63;;;17.45;81.84
14232;BME280;7200;52.194;9.900;2022-07-06T07:58:37;101310.50;;;17.37;81.55
14232;BME280;7200;52.194;9.900;2022-07-06T08:01:02;101312.22;;;17.38;80.68
14232;BME280;7200;52.194;9.900;2022-07-06T08:03:29;101282.00;;;17.37;78.82
14232;BME280;7200;52.194;9.900;2022-07-06T08:05:55;101277.78;;;17.33;78.17
14232;BME280;7200;52.194;9.900;2022-07-06T08:08:20;101288.50;;;17.49;77.52
14232;BME280;7200;52.194;9.900;2022-07-06T08:10:45;101261.91;;;17.47;75.66
14232;BME280;7200;52.194;9.900;2022-07-06T08:13:11;101278.69;;;17.67;72.71
14232;BME280;7200;52.194;9.900;2022-07-06T08:15:37;101308.91;;;17.85;73.67
14232;BME280;7200;52.194;9.900;2022-07-06T08:18:03;101310.47;;;17.89;74.78
14232;BME280;7200;52.194;9.900;2022-07-06T08:20:28;101259.28;;;17.81;73.04
14232;BME280;7200;52.194;9.900;2022-07-06T08:22:55;101295.22;;;17.91;73.68
14232;BME280;7200;52.194;9.900;2022-07-06T08:25:20;101336.19;;;18.07;75.35
14232;BME280;7200;52.194;9.900;2022-07-06T08:27:45;101311.25;;;18.24;73.49
14232;BME280;7200;52.194;9.900;2022-07-06T08:30:11;101303.06;;;18.27;72.29
14232;BME280;7200;52.194;9.900;2022-07-06T08:32:41;101336.63;;;18.49;72.70
14232;BME280;7200;52.194;9.900;2022-07-06T08:35:07;101258.78;;;18.23;70.63
14232;BME280;7200;52.194;9.900;2022-07-06T08:37:32;101266.97;;;18.20;71.04
14232;BME280;7200;52.194;9.900;2022-07-06T08:39:58;101254.75;;;17.99;72.63
14232;BME280;7200;52.194;9.900;2022-07-06T08:42:31;101309.56;;;18.06;74.87
14232;BME280;7200;52.194;9.900;2022-07-06T08:45:05;101243.84;;;18.03;71.79
14232;BME280;7200;52.194;9.900;2022-07-06T08:47:31;101215.13;;;17.91;71.15
14232;BME280;7200;52.194;9.900;2022-07-06T08:49:58;101207.78;;;18.12;68.19
14232;BME280;7200;52.194;9.900;2022-07-06T08:52:24;101229.66;;;18.19;67.88
14232;BME280;7200;52.194;9.900;2022-07-06T08:54:50;101279.22;;;18.40;69.66
14232;BME280;7200;52.194;9.900;2022-07-06T08:57:15;101186.66;;;18.23;66.58
14232;BME280;7200;52.194;9.900;2022-07-06T08:59:41;101130.47;;;18.25;62.64
14232;BME280;7200;52.194;9.900;2022-07-06T09:02:09;101164.34;;;17.93;65.83
14232;BME280;7200;52.194;9.900;2022-07-06T09:04:36;101185.34;;;17.99;65.91
14232;BME280;7200;52.194;9.900;2022-07-06T09:07:02;101236.22;;;18.29;66.39
14232;BME280;7200;52.194;9.900;2022-07-06T09:09:29;101192.59;;;18.44;62.83
14232;BME280;7200;52.194;9.900;2022-07-06T09:11:56;101178.72;;;18.38;62.91
14232;BME280;7200;52.194;9.900;2022-07-06T09:14:21;101194.94;;;18.35;64.00
14232;BME280;7200;52.194;9.900;2022-07-06T09:16:51;101243.53;;;18.41;66.78
14232;BME280;7200;52.194;9.900;2022-07-06T09:19:17;101206.72;;;18.31;66.00
14232;BME280;7200;52.194;9.900;2022-07-06T09:21:42;101223.44;;;18.34;66.47
14232;BME280;7200;52.194;9.900;2022-07-06T09:24:10;101252.22;;;18.45;68.16
14232;BME280;7200;52.194;9.900;2022-07-06T09:26:36;101205.63;;;18.35;66.86
14232;BME280;7200;52.194;9.900;2022-07-06T09:29:01;101209.31;;;18.32;67.38
14232;BME280;7200;52.194;9.900;2022-07-06T09:31:27;101234.13;;;18.34;68.01
14232;BME280;7200;52.194;9.900;2022-07-06T09:33:59;101259.56;;;18.57;68.19
14232;BME280;7200;52.194;9.900;2022-07-06T09:39:23;101217.13;;;18.51;66.94
14232;BME280;7200;52.194;9.900;2022-07-06T09:41:50;101269.81;;;18.81;67.37
14232;BME280;7200;52.194;9.900;2022-07-06T09:44:21;101210.31;;;19.08;64.34
14232;BME280;7200;52.194;9.900;2022-07-06T09:46:47;101214.44;;;19.13;63.62
14232;BME280;7200;52.194;9.900;2022-07-06T09:49:16;101238.19;;;19.03;65.01
14232;BME280;7200;52.194;9.900;2022-07-06T09:51:44;101210.19;;;18.95;65.08
14232;BME280;7200;52.194;9.900;2022-07-06T09:54:09;101221.34;;;18.87;66.48
14232;BME280;7200;52.194;9.900;2022-07-06T09:56:39;101192.97;;;18.84;65.44
14232;BME280;7200;52.194;9.900;2022-07-06T09:59:08;101190.59;;;18.94;64.82
14232;BME280;7200;52.194;9.900;2022-07-06T10:01:33;101173.72;;;18.78;65.53
14232;BME280;7200;52.194;9.900;2022-07-06T10:03:58;101174.09;;;18.72;65.62
14232;BME280;7200;52.194;9.900;2022-07-06T10:06:25;101216.50;;;18.94;66.14
14232;BME280;7200;52.194;9.900;2022-07-06T10:08:51;101247.06;;;19.20;65.95
14232;BME280;7200;52.194;9.900;2022-07-06T10:11:16;101233.25;;;19.12;66.51
14232;BME280;7200;52.194;9.900;2022-07-06T10:13:44;101226.66;;;19.03;66.96
14232;BME280;7200;52.194;9.900;2022-07-06T10:16:12;101228.97;;;19.09;66.86
14232;BME280;7200;52.194;9.900;2022-07-06T10:18:39;101213.28;;;19.17;65.46
14232;BME280;7200;52.194;9.900;2022-07-06T10:21:05;101125.28;;;18.84;63.86
14232;BME280;7200;52.194;9.900;2022-07-06T10:23:31;101102.69;;;18.43;64.02
14232;BME280;7200;52.194;9.900;2022-07-06T10:25:58;101175.75;;;18.58;64.82
14232;BME280;7200;52.194;9.900;2022-07-06T10:28:25;101170.19;;;18.77;63.04
14232;BME280;7200;52.194;9.900;2022-07-06T10:30:51;101110.59;;;18.75;60.62
14232;BME280;7200;52.194;9.900;2022-07-06T10:33:17;101111.22;;;18.80;60.88
14232;BME280;7200;52.194;9.900;2022-07-06T10:35:43;101157.84;;;18.91;61.57
14232;BME280;7200;52.194;9.900;2022-07-06T10:38:10;101118.28;;;18.81;61.26
14232;BME280;7200;52.194;9.900;2022-07-06T10:40:38;101169.13;;;18.96;61.88
14232;BME280;7200;52.194;9.900;2022-07-06T10:43:23;101144.97;;;18.97;61.78
14232;BME280;7200;52.194;9.900;2022-07-06T10:50:41;101191.19;;;19.58;60.43
14232;BME280;7200;52.194;9.900;2022-07-06T10:53:15;101133.84;;;19.34;60.21
14232;BME280;7200;52.194;9.900;2022-07-06T10:55:44;101180.22;;;19.77;59.54
14232;BME280;7200;52.194;9.900;2022-07-06T10:58:12;101099.22;;;19.59;57.70
14232;BME280;7200;52.194;9.900;2022-07-06T11:06:15;101101.69;;;19.62;58.86
14232;BME280;7200;52.194;9.900;2022-07-06T11:08:44;101063.97;;;19.10;59.53
14232;BME280;7200;52.194;9.900;2022-07-06T11:11:12;101071.81;;;18.98;60.43
14232;BME280;7200;52.194;9.900;2022-07-06T11:13:47;101053.09;;;18.84;60.48
14232;BME280;7200;52.194;9.900;2022-07-06T11:16:14;101060.88;;;18.73;60.83
14232;BME280;7200;52.194;9.900;2022-07-06T11:18:42;101088.09;;;18.79;60.61
14232;BME280;7200;52.194;9.900;2022-07-06T11:21:22;101063.59;;;18.57;61.67
14232;BME280;7200;52.194;9.900;2022-07-06T11:23:50;101097.72;;;18.67;61.91
14232;BME280;7200;52.194;9.900;2022-07-06T11:26:16;101105.34;;;18.74;62.12
14232;BME280;7200;52.194;9.900;2022-07-06T11:28:45;101082.81;;;18.78;61.17
14232;BME280;7200;52.194;9.900;2022-07-06T11:31:10;101068.53;;;18.79;60.99
14232;BME280;7200;52.194;9.900;2022-07-06T11:33:36;101101.63;;;19.06;60.46
14232;BME280;7200;52.194;9.900;2022-07-06T11:36:31;101143.22;;;19.55;60.15
14232;BME280;7200;52.194;9.900;2022-07-06T11:38:57;101093.56;;;19.64;57.38
14232;BME280;7200;52.194;9.900;2022-07-06T11:41:22;101094.47;;;19.50;58.47
14232;BME280;7200;52.194;9.900;2022-07-06T11:43:48;101085.56;;;19.50;58.81
14232;BME280;7200;52.194;9.900;2022-07-06T11:46:32;101092.22;;;19.57;58.64
14232;BME280;7200;52.194;9.900;2022-07-06T11:49:08;101170.22;;;20.08;58.91
14232;BME280;7200;52.194;9.900;2022-07-06T11:51:37;101140.63;;;20.10;58.65
14232;BME280;7200;52.194;9.900;2022-07-06T11:54:17;101116.69;;;20.21;57.89
14232;BME280;7200;52.194;9.900;2022-07-06T11:56:56;101090.81;;;20.07;57.22
14232;BME280;7200;52.194;9.900;2022-07-06T11:59:34;101138.41;;;20.31;57.39
14232;BME280;7200;52.194;9.900;2022-07-06T12:02:04;101058.56;;;20.09;56.10
14232;BME280;7200;52.194;9.900;2022-07-06T12:04:31;101121.09;;;20.22;57.94
14232;BME280;7200;52.194;9.900;2022-07-06T12:07:01;101054.34;;;20.32;55.34
14232;BME280;7200;52.194;9.900;2022-07-06T12:09:32;101117.50;;;20.63;55.73
14232;BME280;7200;52.194;9.900;2022-07-06T12:11:58;101106.16;;;20.72;55.16
14232;BME280;7200;52.194;9.900;2022-07-06T12:14:27;101000.69;;;20.46;53.46
14232;BME280;7200;52.194;9.900;2022-07-06T12:16:52;101030.59;;;20.40;54.32
14232;BME280;7200;52.194;9.900;2022-07-06T12:19:21;101018.69;;;20.44;53.65
14232;BME280;7200;52.194;9.900;2022-07-06T12:21:48;101039.41;;;20.68;53.04
14232;BME280;7200;52.194;9.900;2022-07-06T12:24:25;101078.56;;;20.83;54.10
14232;BME280;7200;52.194;9.900;2022-07-06T12:26:52;101011.22;;;20.62;53.16
14232;BME280;7200;52.194;9.900;2022-07-06T12:29:19;101010.75;;;20.42;54.24
14232;BME280;7200;52.194;9.900;2022-07-06T12:31:56;101052.28;;;20.75;54.06
14232;BME280;7200;52.194;9.900;2022-07-06T12:34:29;101045.66;;;20.94;52.84
14232;BME280;7200;52.194;9.900;2022-07-06T12:37:05;101039.78;;;20.76;53.85
14232;BME280;7200;52.194;9.900;2022-07-06T12:39:45;101008.22;;;20.67;53.72
14232;BME280;7200;52.194;9.900;2022-07-06T12:42:14;100965.50;;;20.25;53.51
14232;BME280;7200;52.194;9.900;2022-07-06T12:44:45;100987.09;;;20.09;53.89
14232;BME280;7200;52.194;9.900;2022-07-06T12:47:12;100993.13;;;20.13;54.27
14232;BME280;7200;52.194;9.900;2022-07-06T12:49:38;101015.94;;;20.18;54.87
14232;BME280;7200;52.194;9.900;2022-07-06T12:54:47;101034.28;;;20.25;55.19
14232;BME280;7200;52.194;9.900;2022-07-06T12:57:15;101035.59;;;20.32;55.08
14232;BME280;7200;52.194;9.900;2022-07-06T12:59:43;101019.06;;;20.65;53.71
14232;BME280;7200;52.194;9.900;2022-07-06T13:02:17;101022.88;;;20.48;54.51
14232;BME280;7200;52.194;9.900;2022-07-06T13:04:43;101001.97;;;20.53;54.24
14232;BME280;7200;52.194;9.900;2022-07-06T13:07:19;101043.31;;;20.76;54.53
14232;BME280;7200;52.194;9.900;2022-07-06T13:09:45;100996.97;;;20.61;53.73
14232;BME280;7200;52.194;9.900;2022-07-06T13:12:10;100980.03;;;20.61;53.56